Time;durP1;ratioP1;P1;durP2;ratioP2;P2;SDS_P1;SDS_P2;PMS_P1;PMS_P2;Temp;Humidity;BMP_temperature;BMP_pressure;BME280_temperature;BME280_humidity;BME280_pressure;Samples;Min_cycle;Max_cycle;Signal;HPM_P1;HPM_P2
2024/04/05 00:00:40;;;;;;;10.98;4.07;;;;;;;9.48;100.00;100813.75;5046731;28;20075;-72
2024/04/05 00:03:06;;;;;;;;;;;;;;;9.45;100.00;100809.75;5031660;28;20032;-71
2024/04/05 00:05:31;;;;;;;8.85;3.78;;;;;;;9.43;100.00;100811.88;5042565;28;19922;-70
2024/04/05 00:07:57;;;;;;;11.20;3.47;;;;;;;9.42;100.00;100815.63;5062812;28;20033;-71
2024/04/05 00:10:23;;;;;;;13.13;3.95;;;;;;;9.39;100.00;100821.47;5030394;28;20064;-72
2024/04/05 00:12:48;;;;;;;8.88;3.50;;;;;;;9.38;100.00;100819.88;5025561;28;20052;-71
2024/04/05 00:15:14;;;;;;;10.63;3.35;;;;;;;9.35;100.00;100815.06;5043034;28;20101;-72
2024/04/05 00:17:40;;;;;;;13.15;3.47;;;;;;;9.34;100.00;100813.44;5060414;28;20033;-72
2024/04/05 00:20:06;;;;;;;14.77;3.53;;;;;;;9.31;100.00;100803.28;5011085;28;20059;-71
2024/04/05 00:22:32;;;;;;;14.05;4.25;;;;;;;9.29;100.00;100816.09;5042284;28;20062;-71
2024/04/05 00:24:57;;;;;;;12.80;4.78;;;;;;;9.26;100.00;100812.06;5061844;28;20210;-72
2024/04/05 00:27:23;;;;;;;15.85;5.03;;;;;;;9.24;100.00;100805.38;5040621;28;20679;-71
2024/04/05 00:29:49;;;;;;;10.82;5.32;;;;;;;9.23;100.00;100806.44;5025860;28;20494;-71
2024/04/05 00:32:15;;;;;;;15.40;4.60;;;;;;;9.23;100.00;100809.09;5008219;28;20079;-73
2024/04/05 00:34:41;;;;;;;14.75;4.15;;;;;;;9.23;100.00;100809.91;5044449;28;20568;-73
2024/04/05 00:37:07;;;;;;;14.10;4.55;;;;;;;9.24;100.00;100811.50;5056602;28;20032;-72
2024/04/05 00:39:33;;;;;;;16.20;4.22;;;;;;;9.26;100.00;100812.06;5065832;28;20064;-72
2024/04/05 00:41:59;;;;;;;14.52;4.30;;;;;;;9.27;100.00;100807.50;5031638;28;20124;-72
2024/04/05 00:44:25;;;;;;;18.80;5.10;;;;;;;9.28;100.00;100817.16;5061968;28;20040;-72
2024/04/05 00:46:50;;;;;;;13.68;3.95;;;;;;;9.26;100.00;100812.06;5039288;28;20032;-72
2024/04/05 00:49:17;;;;;;;13.70;3.80;;;;;;;9.25;100.00;100801.63;5008448;28;20066;-70
2024/04/05 00:51:43;;;;;;;12.68;3.30;;;;;;;9.22;100.00;100805.63;5058273;28;20036;-72
2024/04/05 00:54:09;;;;;;;16.15;3.60;;;;;;;9.18;100.00;100798.38;5058274;28;20046;-72
2024/04/05 00:56:36;;;;;;;18.35;5.65;;;;;;;9.14;100.00;100808.75;5056707;28;20133;-72
2024/04/05 00:59:02;;;;;;;26.50;9.82;;;;;;;9.10;100.00;100814.91;5045369;28;20032;-71
2024/04/05 01:01:29;;;;;;;23.98;7.10;;;;;;;9.06;100.00;100811.94;5043702;28;20044;-71
2024/04/05 01:03:55;;;;;;;19.55;6.10;;;;;;;9.01;100.00;100810.03;5009142;28;20679;-70
2024/04/05 01:06:21;;;;;;;21.08;4.82;;;;;;;8.98;100.00;100810.53;5058081;28;20075;-71
2024/04/05 01:08:47;;;;;;;17.50;5.00;;;;;;;8.93;100.00;100807.84;5061134;28;20113;-72
2024/04/05 01:11:13;;;;;;;;;;;;;;;8.89;100.00;100822.78;5049242;28;20065;-71
2024/04/05 01:13:39;;;;;;;12.20;3.20;;;;;;;8.88;100.00;100820.38;5053724;28;20019;-71
2024/04/05 01:16:06;;;;;;;13.90;3.40;;;;;;;8.84;100.00;100817.41;5035607;28;20052;-71
2024/04/05 01:18:32;;;;;;;15.00;2.88;;;;;;;8.80;100.00;100828.84;5041912;28;20040;-71
2024/04/05 01:20:59;;;;;;;;;;;;;;;8.77;100.00;100835.50;5042529;28;20469;-71
2024/04/05 01:23:28;;;;;;;13.57;3.80;;;;;;;8.72;100.00;100840.78;5039474;28;19967;-71
2024/04/05 01:25:53;;;;;;;16.83;3.08;;;;;;;8.68;100.00;100834.38;5041467;28;20041;-71
2024/04/05 01:28:19;;;;;;;16.90;3.53;;;;;;;8.67;100.00;100830.06;5026003;28;20103;-72
2024/04/05 01:30:45;;;;;;;14.80;2.50;;;;;;;8.68;100.00;100837.03;5063384;28;20135;-73
2024/04/05 01:33:10;;;;;;;17.85;3.08;;;;;;;8.69;100.00;100835.97;5028412;28;20032;-72
2024/04/05 01:35:38;;;;;;;18.95;3.20;;;;;;;8.72;100.00;100838.13;5040189;28;20136;-73
2024/04/05 01:38:38;;;;;;;17.60;3.35;;;;;;;8.78;100.00;100831.75;5057990;27;20403;-71
2024/04/05 01:41:03;;;;;;;15.20;2.83;;;;;;;8.80;100.00;100828.84;5036422;28;20821;-72
2024/04/05 01:43:29;;;;;;;16.10;3.67;;;;;;;8.83;100.00;100820.31;5071944;28;20048;-72
2024/04/05 01:45:55;;;;;;;16.35;2.60;;;;;;;8.91;100.00;100826.00;5040144;28;20040;-72
2024/04/05 01:48:20;;;;;;;17.80;3.30;;;;;;;8.96;100.00;100818.03;5058309;28;20119;-71
2024/04/05 01:50:46;;;;;;;22.25;3.20;;;;;;;9.01;100.00;100818.06;5024747;28;20122;-72
2024/04/05 01:53:12;;;;;;;21.92;3.25;;;;;;;9.09;100.00;100815.97;5039483;28;20042;-72
2024/04/05 01:55:37;;;;;;;16.42;2.90;;;;;;;9.12;100.00;100810.09;5043258;28;20059;-72
2024/04/05 01:58:03;;;;;;;19.58;3.00;;;;;;;9.13;100.00;100817.03;5056047;28;20067;-71
2024/04/05 02:00:28;;;;;;;18.75;3.00;;;;;;;9.15;100.00;100815.75;5050031;28;20040;-71
2024/04/05 02:02:54;;;;;;;15.45;2.97;;;;;;;9.17;100.00;100812.81;5055503;28;20063;-70
2024/04/05 02:05:20;;;;;;;17.95;2.97;;;;;;;9.19;100.00;100810.69;5054776;28;20039;-69
2024/04/05 02:07:46;;;;;;;22.73;3.30;;;;;;;9.20;100.00;100817.63;5055273;28;20457;-71
2024/04/05 02:10:12;;;;;;;20.50;3.28;;;;;;;9.23;100.00;100812.59;5057560;28;20524;-71
2024/04/05 02:12:37;;;;;;;13.85;2.60;;;;;;;9.24;100.00;100813.38;5039876;28;20449;-72
2024/04/05 02:15:03;;;;;;;20.42;2.58;;;;;;;9.27;100.00;100818.19;5079772;28;20055;-71
2024/04/05 02:17:32;;;;;;;20.77;3.30;;;;;;;9.28;100.00;100819.84;5049123;28;20390;-71
2024/04/05 02:19:58;;;;;;;20.17;3.28;;;;;;;9.31;100.00;100816.63;5026950;28;20025;-73
2024/04/05 02:22:24;;;;;;;22.20;3.58;;;;;;;9.35;100.00;100815.06;5040039;28;20033;-71
2024/04/05 02:24:49;;;;;;;18.98;3.65;;;;;;;9.36;100.00;100822.00;5039092;28;20061;-72
2024/04/05 02:27:18;;;;;;;18.58;3.22;;;;;;;9.40;100.00;100820.41;5055021;28;20144;-72
2024/04/05 02:29:44;;;;;;;23.13;3.20;;;;;;;9.42;100.00;100810.28;5057687;28;20040;-72
2024/04/05 02:32:09;;;;;;;18.58;3.25;;;;;;;9.44;100.00;100821.50;5054037;28;20029;-71
2024/04/05 02:34:35;;;;;;;26.23;3.95;;;;;;;9.44;100.00;100808.16;5056353;28;20386;-72
2024/04/05 02:37:00;;;;;;;22.33;3.72;;;;;;;9.45;100.00;100803.59;5021037;28;20038;-73
2024/04/05 02:39:26;;;;;;;24.02;3.88;;;;;;;9.46;100.00;100815.91;5039028;28;20144;-73
2024/04/05 02:41:51;;;;;;;20.05;3.80;;;;;;;9.45;100.00;100825.78;5037877;28;20036;-73
2024/04/05 02:44:20;;;;;;;20.40;3.17;;;;;;;9.47;100.00;100822.84;5055767;28;20229;-72
2024/04/05 02:46:46;;;;;;;15.55;3.38;;;;;;;9.47;100.00;100829.00;5053633;28;20126;-73
2024/04/05 02:49:12;;;;;;;18.73;3.50;;;;;;;9.49;100.00;100826.09;5045009;28;20112;-73
2024/04/05 02:51:38;;;;;;;19.85;3.88;;;;;;;9.51;100.00;100830.09;5029348;28;20163;-73
2024/04/05 02:54:03;;;;;;;25.13;3.90;;;;;;;9.53;100.00;100830.63;5027092;28;20550;-72
2024/04/05 02:56:29;;;;;;;26.60;4.22;;;;;;;9.55;100.00;100828.53;5043017;28;20041;-73
2024/04/05 02:58:56;;;;;;;24.83;3.67;;;;;;;9.55;100.00;100825.03;5026246;28;20044;-73
2024/04/05 03:01:24;;;;;;;20.73;3.20;;;;;;;9.54;100.00;100824.22;5039219;28;20095;-73
2024/04/05 03:03:50;;;;;;;24.77;3.47;;;;;;;9.52;100.00;100833.56;5022640;28;20037;-72
2024/04/05 03:06:16;;;;;;;24.77;3.10;;;;;;;9.48;100.00;100835.97;5022517;28;20044;-72
2024/04/05 03:08:41;;;;;;;21.45;3.60;;;;;;;9.45;100.00;100838.34;5038173;28;20032;-72
2024/04/05 03:11:08;;;;;;;21.70;3.35;;;;;;;9.40;100.00;100841.78;5037014;28;22870;-73
2024/04/05 03:13:34;;;;;;;17.30;2.92;;;;;;;9.39;100.00;100840.19;5038403;28;20040;-72
2024/04/05 03:16:01;;;;;;;22.30;3.63;;;;;;;9.33;100.00;100843.91;5043263;28;20071;-72
2024/04/05 03:18:27;;;;;;;22.80;3.33;;;;;;;9.28;100.00;100851.91;5045153;28;20090;-72
2024/04/05 03:20:53;;;;;;;26.13;3.80;;;;;;;9.24;100.00;100856.94;5011351;28;20433;-72
2024/04/05 03:23:19;;;;;;;20.00;3.63;;;;;;;9.20;100.00;100855.84;5042011;28;20025;-71
2024/04/05 03:25:46;;;;;;;18.67;3.35;;;;;;;9.18;100.00;100854.50;5042237;28;20466;-71
2024/04/05 03:28:11;;;;;;;21.20;3.60;;;;;;;9.14;100.00;100858.72;5036041;28;20061;-74
2024/04/05 03:30:37;;;;;;;22.77;3.40;;;;;;;9.10;100.00;100860.31;5024013;28;20065;-72
2024/04/05 03:33:03;;;;;;;22.23;2.42;;;;;;;9.06;100.00;100860.00;5037753;28;20030;-71
2024/04/05 03:35:29;;;;;;;20.45;3.00;;;;;;;9.02;100.00;100857.06;5042588;28;20041;-71
2024/04/05 03:37:55;;;;;;;18.45;3.00;;;;;;;8.98;100.00;100858.63;5042741;28;20067;-71
2024/04/05 03:40:21;;;;;;;21.48;3.30;;;;;;;8.93;100.00;100869.28;5041551;28;20506;-72
2024/04/05 03:42:50;;;;;;;25.63;3.45;;;;;;;8.91;100.00;100858.03;5037963;28;20056;-72
2024/04/05 03:45:16;;;;;;;26.00;3.45;;;;;;;8.87;100.00;100862.28;5024887;28;20045;-71
2024/04/05 03:47:42;;;;;;;22.48;3.63;;;;;;;8.84;100.00;100867.34;5028481;28;20102;-72
2024/04/05 03:50:08;;;;;;;19.08;3.15;;;;;;;8.82;100.00;100872.94;5022841;28;20520;-71
2024/04/05 03:52:34;;;;;;;23.50;3.45;;;;;;;8.81;100.00;100871.31;5022249;28;20040;-71
2024/04/05 03:55:00;;;;;;;27.35;3.85;;;;;;;8.82;100.00;100875.59;5041788;28;20090;-72
2024/04/05 03:57:26;;;;;;;19.05;3.47;;;;;;;8.81;100.00;100874.00;5041391;28;20166;-71
2024/04/05 03:59:54;;;;;;;31.00;4.20;;;;;;;8.79;100.00;100881.44;5024731;28;20121;-71
2024/04/05 04:02:19;;;;;;;22.65;3.25;;;;;;;8.79;100.00;100876.09;5042386;28;20085;-71
2024/04/05 04:04:45;;;;;;;18.80;3.20;;;;;;;8.79;100.00;100876.09;5037869;28;20029;-72
2024/04/05 04:07:11;;;;;;;24.50;3.50;;;;;;;8.78;100.00;100876.34;5004875;28;20064;-72
2024/04/05 04:09:36;;;;;;;24.38;3.97;;;;;;;8.75;100.00;100880.34;5039635;28;20505;-72
2024/04/05 04:12:03;;;;;;;15.90;3.22;;;;;;;8.74;100.00;100884.09;5041282;28;20098;-71
2024/04/05 04:14:29;;;;;;;19.35;3.63;;;;;;;8.72;100.00;100887.00;5035867;28;20045;-72
2024/04/05 04:16:55;;;;;;;22.65;3.42;;;;;;;8.71;100.00;100880.03;5024329;28;20494;-71
2024/04/05 04:19:21;;;;;;;15.02;3.40;;;;;;;8.71;100.00;100892.59;5022659;28;20051;-72
2024/04/05 04:21:47;;;;;;;;;;;;;;;8.70;100.00;100883.78;5039460;28;20029;-72
2024/04/05 04:24:13;;;;;;;16.95;3.22;;;;;;;8.72;100.00;100884.31;5039924;28;19913;-71
2024/04/05 04:26:40;;;;;;;24.02;3.75;;;;;;;8.76;100.00;100887.31;5037259;28;20144;-71
2024/04/05 04:29:05;;;;;;;24.45;3.55;;;;;;;8.77;100.00;100880.91;5038856;28;20036;-72
2024/04/05 04:31:31;;;;;;;25.13;4.57;;;;;;;8.78;100.00;100885.16;5040016;28;20047;-72
2024/04/05 04:33:57;;;;;;;26.98;3.75;;;;;;;8.79;100.00;100883.31;5023955;28;20572;-72
2024/04/05 04:36:23;;;;;;;18.38;3.08;;;;;;;8.81;100.00;100884.69;5039972;28;20422;-70
2024/04/05 04:38:49;;;;;;;19.65;3.13;;;;;;;8.84;100.00;100896.72;5035981;28;20560;-70
2024/04/05 04:41:16;;;;;;;18.52;4.05;;;;;;;8.86;100.00;100892.72;5039316;28;20131;-71
2024/04/05 04:43:42;;;;;;;29.08;5.55;;;;;;;8.90;100.00;100899.16;5033052;28;20029;-71
2024/04/05 04:46:10;;;;;;;22.10;3.83;;;;;;;8.94;100.00;100900.28;5039578;28;20041;-72
2024/04/05 04:48:37;;;;;;;19.98;3.78;;;;;;;8.97;100.00;100894.41;5041795;28;20120;-72
2024/04/05 04:51:03;;;;;;;25.75;3.92;;;;;;;9.00;100.00;100885.88;5039617;28;20079;-71
2024/04/05 04:53:29;;;;;;;;;;;;;;;9.05;100.00;100890.47;5024456;28;20041;-71
2024/04/05 04:55:55;;;;;;;16.85;2.63;;;;;;;9.06;100.00;100893.94;5043480;28;19917;-71
2024/04/05 04:58:23;;;;;;;24.80;3.40;;;;;;;9.05;100.00;100884.31;5039854;28;20041;-71
2024/04/05 05:00:51;;;;;;;23.15;3.67;;;;;;;9.08;100.00;100895.31;5041676;28;20036;-73
2024/04/05 05:03:17;;;;;;;24.63;4.32;;;;;;;9.10;100.00;100895.06;5037245;28;24215;-71
2024/04/05 05:05:44;;;;;;;19.15;3.78;;;;;;;9.12;100.00;100900.94;5042509;28;20040;-71
2024/04/05 05:08:12;;;;;;;18.00;3.22;;;;;;;9.13;100.00;100903.34;5041295;28;20101;-71
2024/04/05 05:10:39;;;;;;;19.52;3.38;;;;;;;9.13;100.00;100895.34;5035386;28;20052;-71
2024/04/05 05:13:11;;;;;;;21.35;3.22;;;;;;;9.15;100.00;100895.09;5010225;28;20520;-71
2024/04/05 05:15:42;;;;;;;20.33;3.45;;;;;;;9.15;100.00;100901.25;5015656;28;20454;-71
2024/04/05 05:18:11;;;;;;;19.88;3.00;;;;;;;9.14;100.00;100891.59;5042693;28;20103;-71
2024/04/05 05:20:44;;;;;;;28.88;5.18;;;;;;;9.13;100.00;100894.53;5039729;28;20056;-71
2024/04/05 05:23:10;;;;;;;19.38;4.57;;;;;;;9.13;100.00;100897.19;5037922;28;20045;-72
2024/04/05 05:25:36;;;;;;;18.08;3.47;;;;;;;9.14;100.00;100912.16;5037409;28;20422;-71
2024/04/05 05:28:01;;;;;;;26.23;3.60;;;;;;;9.15;100.00;100913.81;5040716;28;20723;-71
2024/04/05 05:30:27;;;;;;;22.08;4.18;;;;;;;9.17;100.00;100920.50;5037494;28;20113;-72
2024/04/05 05:32:56;;;;;;;26.02;4.47;;;;;;;9.17;100.00;100925.03;5021443;28;20041;-72
2024/04/05 05:35:23;;;;;;;20.52;3.47;;;;;;;9.18;100.00;100926.63;5022245;28;20350;-71
2024/04/05 05:37:49;;;;;;;17.85;3.60;;;;;;;9.21;100.00;100912.75;5039784;28;20030;-72
2024/04/05 05:40:15;;;;;;;17.65;2.88;;;;;;;9.23;100.00;100924.00;5035437;28;20056;-73
2024/04/05 05:42:40;;;;;;;19.15;3.65;;;;;;;9.27;100.00;100919.75;5023617;28;20608;-71
2024/04/05 05:45:06;;;;;;;17.35;3.38;;;;;;;9.31;100.00;100915.50;5019438;28;20094;-72
2024/04/05 05:47:32;;;;;;;19.35;3.10;;;;;;;9.33;100.00;100928.63;5034289;28;20036;-71
2024/04/05 05:49:57;;;;;;;19.27;3.35;;;;;;;9.35;100.00;100932.66;5037588;28;20788;-71
2024/04/05 05:52:23;;;;;;;20.80;3.38;;;;;;;9.39;100.00;100939.09;5039082;28;20681;-71
2024/04/05 05:54:48;;;;;;;22.83;3.38;;;;;;;9.40;100.00;100947.91;5041751;28;20371;-71
2024/04/05 05:57:15;;;;;;;23.45;3.70;;;;;;;9.43;100.00;100945.53;5029130;28;20044;-72
2024/04/05 05:59:41;;;;;;;35.42;4.35;;;;;;;9.43;100.00;100942.88;5033625;28;20051;-71
2024/04/05 06:02:07;;;;;;;23.33;3.40;;;;;;;9.45;100.00;100943.41;5037562;28;20040;-72
2024/04/05 06:04:33;;;;;;;22.10;3.55;;;;;;;9.46;100.00;100950.38;5043921;28;20087;-71
2024/04/05 06:06:59;;;;;;;18.75;3.50;;;;;;;9.47;100.00;100946.63;5034845;28;20036;-72
2024/04/05 06:09:25;;;;;;;19.15;3.92;;;;;;;9.49;100.00;100965.09;5038040;28;20052;-71
2024/04/05 06:11:51;;;;;;;18.67;3.88;;;;;;;9.50;100.00;100967.50;5023749;28;20098;-71
2024/04/05 06:14:17;;;;;;;19.67;3.40;;;;;;;9.54;100.00;100971.28;5037168;28;20033;-71
2024/04/05 06:16:43;;;;;;;24.17;3.85;;;;;;;9.58;100.00;100963.56;5038212;28;20510;-72
2024/04/05 06:19:09;;;;;;;22.77;3.72;;;;;;;9.61;100.00;100978.25;5041022;28;20101;-71
2024/04/05 06:21:35;;;;;;;19.92;3.22;;;;;;;9.63;100.00;100966.28;5037092;28;20044;-72
2024/04/05 06:24:01;;;;;;;26.15;3.80;;;;;;;9.67;100.00;100967.34;5040912;28;20240;-71
2024/04/05 06:26:27;;;;;;;21.00;3.15;;;;;;;9.73;100.00;100976.22;5029547;28;20055;-71
2024/04/05 06:28:53;;;;;;;19.77;3.70;;;;;;;9.77;100.00;100977.31;5040960;28;20036;-71
2024/04/05 06:31:19;;;;;;;;;;;;;;;9.82;100.00;100969.31;5043799;28;20029;-71
2024/04/05 06:33:45;;;;;;;22.58;3.90;;;;;;;9.85;100.00;100958.91;5025100;28;20694;-71
2024/04/05 06:36:11;;;;;;;20.15;3.58;;;;;;;9.90;100.00;100960.00;5039884;28;20052;-71
2024/04/05 06:38:37;;;;;;;19.92;3.10;;;;;;;9.93;100.00;100954.94;5067779;28;20033;-70
2024/04/05 06:41:04;;;;;;;14.90;2.85;;;;;;;9.97;100.00;100961.38;5026213;28;20036;-71
2024/04/05 06:43:30;;;;;;;21.95;3.25;;;;;;;10.02;100.00;100963.25;5046697;28;20037;-71
2024/04/05 06:46:03;;;;;;;16.75;3.28;;;;;;;10.05;100.00;100965.44;4994691;28;20056;-71
2024/04/05 06:48:31;;;;;;;26.10;3.60;;;;;;;10.07;100.00;100966.78;5038790;28;20112;-71
2024/04/05 06:50:56;;;;;;;21.27;3.92;;;;;;;10.10;100.00;100968.13;5034776;28;20064;-71
2024/04/05 06:53:29;;;;;;;16.55;3.22;;;;;;;10.12;100.00;100976.69;5041821;28;20119;-73
2024/04/05 06:55:54;;;;;;;19.23;3.60;;;;;;;10.15;100.00;100975.38;5038546;28;20528;-72
2024/04/05 06:58:21;;;;;;;18.77;3.42;;;;;;;10.17;100.00;100973.25;5037684;28;20036;-71
2024/04/05 07:00:48;;;;;;;20.48;3.20;;;;;;;10.21;100.00;100974.31;5042452;28;20028;-71
2024/04/05 07:03:13;;;;;;;15.98;3.40;;;;;;;10.27;100.00;100973.31;5044020;28;20136;-71
2024/04/05 07:05:40;;;;;;;19.30;3.78;;;;;;;10.32;100.00;100974.16;5042276;28;20502;-70
2024/04/05 07:08:07;;;;;;;22.80;3.70;;;;;;;10.36;100.00;100974.41;5021685;28;20028;-71
2024/04/05 07:10:34;;;;;;;16.60;3.42;;;;;;;10.41;100.00;100976.31;5029155;28;20048;-71
2024/04/05 07:12:59;;;;;;;20.05;4.20;;;;;;;10.44;100.00;100973.94;5009044;28;20067;-71
2024/04/05 07:15:25;;;;;;;18.95;3.47;;;;;;;10.46;100.00;100971.78;5042142;28;20513;-72
2024/04/05 07:17:52;;;;;;;16.15;3.28;;;;;;;10.44;100.00;100971.25;5023157;28;20037;-72
2024/04/05 07:20:24;;;;;;;18.52;2.80;;;;;;;10.43;100.00;100969.66;5040040;28;20036;-72
2024/04/05 07:22:55;;;;;;;17.58;3.47;;;;;;;10.45;100.00;100978.22;5021673;28;20120;-71
2024/04/05 07:25:22;;;;;;;19.48;3.28;;;;;;;10.47;100.00;100965.34;5024480;28;20624;-71
2024/04/05 07:27:54;;;;;;;22.55;4.25;;;;;;;10.50;100.00;100969.38;5035965;28;20040;-71
2024/04/05 07:30:23;;;;;;;14.43;2.80;;;;;;;10.53;100.00;100964.31;5039073;28;20135;-72
2024/04/05 07:32:51;;;;;;;17.42;3.35;;;;;;;10.55;100.00;100961.34;5037572;28;20036;-72
2024/04/05 07:35:20;;;;;;;20.73;3.38;;;;;;;10.63;100.00;100964.34;5021901;28;20032;-72
2024/04/05 07:37:47;;;;;;;15.20;3.03;;;;;;;10.72;100.00;100961.16;5041902;28;20469;-72
2024/04/05 07:40:25;;;;;;;13.10;2.78;;;;;;;10.76;100.00;100967.56;5040614;28;20036;-71
2024/04/05 07:42:52;;;;;;;15.45;3.50;;;;;;;10.78;100.00;100958.22;5040429;28;20511;-72
2024/04/05 07:45:22;;;;;;;16.65;4.05;;;;;;;10.87;100.00;100969.22;5041412;28;20037;-71
2024/04/05 07:47:48;;;;;;;20.27;3.70;;;;;;;10.94;100.00;100965.19;5035775;28;20502;-73
2024/04/05 07:50:15;;;;;;;14.27;3.17;;;;;;;11.04;100.00;100967.09;5036664;28;20128;-70
2024/04/05 07:52:41;;;;;;;14.57;3.22;;;;;;;11.08;100.00;100973.50;5033627;28;20041;-72
2024/04/05 07:55:08;;;;;;;14.30;2.60;;;;;;;11.09;100.00;100972.44;5038855;28;20442;-72
2024/04/05 07:57:35;;;;;;;18.52;3.08;;;;;;;11.15;100.00;100965.22;5023892;28;20038;-71
2024/04/05 08:00:01;;;;;;;12.23;3.05;;;;;;;11.18;100.00;100965.50;5038135;28;20571;-71
2024/04/05 08:02:29;;;;;;;20.73;3.92;;;;;;;11.23;100.00;100958.50;5044027;28;20032;-71
2024/04/05 08:04:55;;;;;;;13.15;2.90;;;;;;;11.27;100.00;100957.72;5041914;28;20273;-71
2024/04/05 08:07:23;;;;;;;13.95;2.92;;;;;;;11.32;100.00;100946.19;5035544;28;20109;-71
2024/04/05 08:09:52;;;;;;;18.20;3.75;;;;;;;11.35;100.00;100942.94;5041351;28;20036;-71
2024/04/05 08:12:18;;;;;;;19.88;3.53;;;;;;;11.40;100.00;100938.41;5039242;28;20029;-71
2024/04/05 08:14:45;;;;;;;18.13;2.78;;;;;;;11.46;100.00;100931.16;5040402;28;20041;-71
2024/04/05 08:17:12;;;;;;;19.05;2.83;;;;;;;11.49;100.00;100927.91;5039071;28;20102;-72
2024/04/05 08:19:39;;;;;;;19.15;4.13;;;;;;;11.47;100.00;100935.44;5043800;28;20044;-72
2024/04/05 08:22:06;;;;;;;15.80;3.55;;;;;;;11.49;100.00;100930.59;5041410;28;20469;-72
2024/04/05 08:24:34;;;;;;;16.13;2.75;;;;;;;11.49;100.00;100928.72;5042688;28;20053;-73
2024/04/05 08:26:59;;;;;;;14.70;3.13;;;;;;;11.51;100.00;100923.06;5023890;28;20037;-72
2024/04/05 08:29:25;;;;;;;13.98;2.90;;;;;;;11.52;100.00;100924.72;5042100;28;20036;-72
2024/04/05 08:31:52;;;;;;;15.25;3.15;;;;;;;11.54;100.00;100922.56;5039319;28;20123;-72
2024/04/05 08:34:21;;;;;;;15.98;3.53;;;;;;;11.59;100.00;100921.75;5022673;28;20119;-72
2024/04/05 08:36:49;;;;;;;16.83;3.20;;;;;;;11.67;100.00;100930.03;5040355;28;20091;-72
2024/04/05 08:39:18;;;;;;;14.75;2.95;;;;;;;11.75;100.00;100926.78;5027912;28;20041;-72
2024/04/05 08:41:48;;;;;;;18.25;3.25;;;;;;;11.82;100.00;100923.03;5039961;28;20037;-72
2024/04/05 08:44:15;;;;;;;15.77;2.90;;;;;;;11.83;100.00;100916.59;5037995;28;20055;-73
2024/04/05 08:46:41;;;;;;;17.25;3.20;;;;;;;11.88;100.00;100908.53;5018782;28;20048;-72
2024/04/05 08:49:07;;;;;;;15.18;3.05;;;;;;;11.99;100.00;100905.56;5021646;28;20041;-72
2024/04/05 08:51:39;;;;;;;17.58;3.55;;;;;;;12.13;100.00;100911.13;5037675;28;20056;-72
2024/04/05 08:54:05;;;;;;;16.58;3.45;;;;;;;12.33;100.00;100898.66;5037026;28;20056;-71
2024/04/05 08:56:31;;;;;;;15.32;3.13;;;;;;;12.50;100.00;100899.09;5036766;28;20037;-71
2024/04/05 08:59:01;;;;;;;16.60;3.35;;;;;;;12.58;100.00;100893.94;5039590;28;20036;-72
2024/04/05 09:01:27;;;;;;;13.80;2.92;;;;;;;12.77;100.00;100898.66;5041033;28;20036;-72
2024/04/05 09:03:53;;;;;;;19.55;3.58;;;;;;;12.91;100.00;100904.19;5037486;28;20106;-71
2024/04/05 09:06:19;;;;;;;12.38;3.03;;;;;;;13.04;100.00;100911.63;5035670;28;20029;-72
2024/04/05 09:08:46;;;;;;;13.73;3.08;;;;;;;13.19;100.00;100916.84;5036126;28;20029;-71
2024/04/05 09:11:20;;;;;;;11.55;2.65;;;;;;;13.35;100.00;100909.50;5031973;28;20033;-73
2024/04/05 09:13:55;;;;;;;10.75;2.80;;;;;;;13.45;100.00;100917.47;5007046;28;20071;-72
2024/04/05 09:16:23;;;;;;;14.95;2.65;;;;;;;13.54;100.00;100904.19;5038424;28;20500;-71
2024/04/05 09:18:49;;;;;;;12.93;2.65;;;;;;;13.58;100.00;100900.63;5035930;28;20025;-71
2024/04/05 09:21:17;;;;;;;14.00;2.92;;;;;;;13.65;100.00;100900.28;5038643;28;20029;-72
2024/04/05 09:23:44;;;;;;;12.65;3.20;;;;;;;13.69;100.00;100903.22;5023056;28;20029;-70
2024/04/05 09:26:10;;;;;;;13.30;2.90;;;;;;;13.73;100.00;100891.59;5028804;28;20033;-73
2024/04/05 09:28:36;;;;;;;;;;;;;;;13.80;100.00;100883.97;5020544;28;20043;-72
2024/04/05 09:31:03;;;;;;;13.40;3.15;;;;;;;13.83;100.00;100885.31;5037593;28;19999;-72
2024/04/05 09:33:29;;;;;;;13.68;3.10;;;;;;;13.90;100.00;100886.56;5040121;28;20498;-72
2024/04/05 09:35:55;;;;;;;;;;;;;;;13.98;100.00;100889.69;5030957;28;20037;-72
2024/04/05 09:38:22;;;;;;;11.43;2.33;;;;;;;14.03;100.00;100876.19;5065399;28;19921;-72
2024/04/05 09:40:49;;;;;;;12.77;2.95;;;;;;;14.09;100.00;100880.38;5037490;28;20514;-72
2024/04/05 09:43:15;;;;;;;14.55;3.03;;;;;;;14.13;100.00;100887.59;5018336;28;20036;-72
2024/04/05 09:45:45;;;;;;;13.70;2.92;;;;;;;14.23;100.00;100883.19;5033611;28;20204;-70
2024/04/05 09:48:11;;;;;;;12.52;2.90;;;;;;;14.24;100.00;100892.88;5038262;28;20037;-71
2024/04/05 09:50:38;;;;;;;12.25;2.38;;;;;;;14.18;100.00;100884.84;5030870;28;20450;-71
2024/04/05 09:53:04;;;;;;;10.13;2.70;;;;;;;14.21;100.00;100872.69;5038944;28;20525;-72
2024/04/05 09:55:37;;;;;;;12.32;2.53;;;;;;;14.21;100.00;100869.97;5036093;28;20125;-72
2024/04/05 09:58:05;;;;;;;12.70;3.20;;;;;;;14.26;100.00;100867.22;5037775;28;20047;-71
2024/04/05 10:00:32;;;;;;;11.25;2.67;;;;;;;14.31;100.00;100872.56;5035262;28;20041;-71
2024/04/05 10:02:59;;;;;;;10.98;2.53;;;;;;;14.36;100.00;100869.78;5027432;28;20045;-71
2024/04/05 10:05:32;;;;;;;12.18;2.90;;;;;;;14.43;100.00;100870.22;5026056;28;20037;-71
2024/04/05 10:08:16;;;;;;;13.32;2.78;;;;;;;14.62;100.00;100866.72;5049387;28;20021;-71
2024/04/05 10:10:46;;;;;;;10.07;2.15;;;;;;;14.78;100.00;100859.22;5042549;28;20041;-72
2024/04/05 10:13:14;;;;;;;14.00;2.90;;;;;;;14.87;100.00;100852.03;5039495;28;20036;-72
2024/04/05 10:15:54;;;;;;;10.13;1.75;;;;;;;14.87;100.00;100836.66;5044702;28;20033;-72
2024/04/05 10:18:39;;;;;;;7.97;2.20;;;;;;;14.94;100.00;100845.16;5025803;28;20032;-73
2024/04/05 10:21:08;;;;;;;8.25;1.98;;;;;;;14.95;100.00;100833.28;5039511;28;20048;-71
2024/04/05 10:23:44;;;;;;;10.20;1.85;;;;;;;14.98;100.00;100827.31;5026904;28;20631;-71
2024/04/05 10:26:13;;;;;;;7.25;2.05;;;;;;;14.98;100.00;100821.13;5040737;28;20037;-70
2024/04/05 10:28:40;;;;;;;10.43;2.20;;;;;;;15.01;100.00;100812.44;5054921;28;20167;-71
2024/04/05 10:31:06;;;;;;;11.98;2.42;;;;;;;15.00;100.00;100817.03;5025231;28;20087;-72
2024/04/05 10:33:33;;;;;;;;;;;;;;;15.03;100.00;100813.72;5030214;28;20851;-72
2024/04/05 10:35:59;;;;;;;9.10;1.98;;;;;;;15.06;100.00;100806.94;5037990;28;19966;-72
2024/04/05 10:38:27;;;;;;;9.07;2.20;;;;;;;15.10;100.00;100812.53;5039713;28;20037;-71
2024/04/05 10:40:58;;;;;;;7.75;2.08;;;;;;;15.07;100.00;100813.94;5038386;28;20048;-73
2024/04/05 10:43:24;;;;;;;9.15;2.13;;;;;;;15.08;100.00;100810.13;5038343;28;20045;-71
2024/04/05 10:45:57;;;;;;;;;;;;;;;15.10;100.00;100801.75;5043213;28;20094;-71
2024/04/05 10:48:23;;;;;;;7.32;2.00;;;;;;;15.11;100.00;100793.38;5038899;28;20035;-71
2024/04/05 10:50:49;;;;;;;;;;;;;;;15.10;100.00;100791.75;5027479;28;20120;-71
2024/04/05 10:53:16;;;;;;;7.15;2.28;;;;;;;15.11;100.00;100800.66;5041340;28;19917;-72
2024/04/05 10:55:43;;;;;;;11.70;2.13;;;;;;;15.01;100.00;100794.34;5036347;28;20045;-71
2024/04/05 10:58:11;;;;;;;8.82;2.35;;;;;;;15.03;100.00;100780.56;5039558;28;20136;-71
2024/04/05 11:00:37;;;;;;;8.40;2.00;;;;;;;15.02;100.00;100778.97;5024198;28;20028;-72
2024/04/05 11:03:07;;;;;;;9.88;2.40;;;;;;;15.01;100.00;100772.78;5030079;28;20029;-71
2024/04/05 11:05:33;;;;;;;10.45;2.10;;;;;;;14.97;100.00;100765.56;5037985;28;20090;-71
2024/04/05 11:07:59;;;;;;;;;;;;;;;14.93;100.00;100759.97;5035779;28;20032;-70
2024/04/05 11:10:29;;;;;;;9.27;2.28;;;;;;;14.86;100.00;100748.78;5022973;28;19913;-71
2024/04/05 11:12:55;;;;;;;9.88;2.10;;;;;;;14.83;100.00;100741.28;5042958;28;20044;-71
2024/04/05 11:15:21;;;;;;;;;;;;;;;14.74;100.00;100735.00;5043816;28;20033;-71